Latest Weather Observations for Delamere

IDD60801

Issued at 4:31 pm CST Saturday 23 May 2015 (issued every 30 minutes, with the page automatically refreshed every 10 minutes)

About weather observations | Map of weather stations | Latest weather observations for NT | Other Formats
Station Details ID: 014949 Name: DELAMERE WEAPONS RANGE Lat: -15.74 Lon: 131.92 Height: 221.0 m
Data from the previous 72 hours. | See also: Recent months at Delamere
Date/Time
CST
Temp
°C
App
Temp
°C
Dew
Point
Rel
Hum
%
Delta-T
°C
Wind Press
QNH
hPa
Press
MSL
hPa
Rain
since 9 am
mm
Dir
 
Spd
km/h
Gust
km/h
Spd
kts
Gust
kts
23/04:30pm 28.1 24.5 5.0 23 12.0 SE 13 20 7 11 1015.0 - 0.0
23/04:00pm 28.1 24.4 4.4 22 12.2 SE 13 22 7 12 1015.1 - 0.0
23/03:30pm 28.2 25.0 5.1 23 12.0 SE 11 17 6 9 1015.2 - 0.0
23/03:00pm 28.0 24.9 3.7 21 12.3 ESE 9 13 5 7 1015.5 1014.4 0.0
23/02:30pm 27.8 23.5 3.5 21 12.3 ESE 15 20 8 11 1015.9 - 0.0
23/02:00pm 27.3 23.3 3.1 21 12.1 SE 13 24 7 13 1016.4 - 0.0
23/01:30pm 26.4 22.7 2.3 21 11.8 ESE 11 19 6 10 1017.0 - 0.0
23/01:00pm 26.2 21.6 1.5 20 11.9 SE 15 20 8 11 1017.5 - 0.0
23/12:30pm 26.0 20.6 1.3 20 11.9 E 19 26 10 14 1017.8 - 0.0
23/12:00pm 25.2 20.5 0.7 20 11.5 E 15 24 8 13 1018.5 1017.5 0.0
23/11:30am 24.4 19.7 0.7 21 11.1 E 15 24 8 13 1018.8 - 0.0
23/11:00am 23.5 18.3 -0.1 21 10.8 ESE 17 22 9 12 1019.4 - 0.0
23/10:30am 22.6 16.7 -0.8 21 10.5 E 20 28 11 15 1019.7 - 0.0
23/10:00am 21.9 16.6 -0.8 22 10.1 E 17 22 9 12 1019.9 - 0.0
23/09:30am 20.6 14.6 -1.2 23 9.6 ESE 20 30 11 16 1020.1 - 0.0
23/09:00am 19.8 14.0 -1.3 24 9.1 ESE 19 28 10 15 1020.1 1019.0 0.0
23/08:30am 18.6 12.8 -1.3 26 8.6 ESE 19 28 10 15 1020.1 - 0.0
23/08:00am 17.9 13.0 -0.8 28 8.0 ESE 15 26 8 14 1019.9 - 0.0
23/07:30am 17.1 12.9 -1.1 29 7.7 ESE 11 17 6 9 1019.6 - 0.0
23/07:00am 16.9 12.7 -0.8 30 7.6 ESE 11 15 6 8 1019.4 - 0.0
23/06:30am 17.3 13.5 -0.9 29 7.8 ESE 9 15 5 8 1019.1 - 0.0
23/06:00am 17.6 13.8 -0.6 29 7.8 ESE 9 15 5 8 1018.7 1017.7 0.0
23/05:30am 18.1 13.9 -0.7 28 8.1 ESE 11 15 6 8 1018.5 - 0.0
23/05:00am 18.6 14.0 -0.7 27 8.4 ESE 13 17 7 9 1018.3 - 0.0
23/04:30am 18.8 14.3 -0.1 28 8.3 ESE 13 20 7 11 1018.1 - 0.0
23/04:00am 19.1 14.8 0.7 29 8.3 ESE 13 17 7 9 1018.0 - 0.0
23/03:30am 19.5 15.7 1.5 30 8.3 ESE 11 17 6 9 1018.0 - 0.0
23/03:00am 19.9 15.8 2.3 31 8.2 ESE 13 19 7 10 1018.0 1017.0 0.0
23/02:30am 20.1 16.1 2.9 32 8.1 ESE 13 20 7 11 1018.2 - 0.0
23/02:00am 20.6 16.4 3.8 33 8.1 ESE 15 24 8 13 1018.1 - 0.0
23/01:30am 20.8 16.8 4.8 35 7.9 SE 15 20 8 11 1018.1 - 0.0
23/01:00am 21.2 17.0 5.5 36 7.9 SE 17 26 9 14 1018.2 - 0.0
23/12:30am 21.3 17.2 6.4 38 7.6 SE 17 26 9 14 1018.3 - 0.0
23/12:00am 21.8 18.2 6.9 38 7.7 SSE 15 20 8 11 1018.4 1017.4 0.0
 
Date/Time
CST
Temp
°C
App
Temp
°C
Dew
Point
Rel
Hum
%
Delta-T
°C
Wind Press
QNH
hPa
Press
MSL
hPa
Rain
since 9 am
mm
Dir
 
Spd
km/h
Gust
km/h
Spd
kts
Gust
kts
22/11:30pm 22.3 18.7 6.9 37 8.0 SE 15 22 8 12 1018.4 - 0.0
22/11:00pm 22.9 18.6 7.0 36 8.3 SE 19 26 10 14 1018.5 - 0.0
22/10:30pm 23.5 19.7 7.6 36 8.4 SE 17 28 9 15 1018.4 - 0.0
22/10:00pm 23.6 21.1 8.1 37 8.3 SE 11 17 6 9 1018.4 - 0.0
22/09:30pm 24.2 21.0 8.6 37 8.4 SE 15 20 8 11 1018.2 - 0.0
22/09:00pm 24.6 21.8 10.1 40 8.1 SSE 15 17 8 9 1018.1 1017.1 0.0
22/08:30pm 24.8 23.2 11.4 43 7.6 SE 11 15 6 8 1017.8 - 0.0
22/08:00pm 24.7 23.9 11.6 44 7.5 SE 7 9 4 5 1017.5 - 0.0
22/07:30pm 25.5 24.8 11.3 41 8.1 SE 6 7 3 4 1017.2 - 0.0
22/07:00pm 26.4 25.0 10.9 38 8.8 SE 9 11 5 6 1016.8 - 0.0
22/06:30pm 27.2 25.8 10.8 36 9.4 SE 9 13 5 7 1016.4 - 0.0
22/06:00pm 28.3 26.5 10.9 34 10.0 SE 11 15 6 8 1016.1 1015.0 0.0
22/05:30pm 29.1 26.3 11.2 33 10.4 SE 17 24 9 13 1015.8 - 0.0
22/05:00pm 29.4 26.5 11.0 32 10.6 SE 17 22 9 12 1015.5 - 0.0
22/04:30pm 30.0 27.9 11.0 31 11.0 SE 13 20 7 11 1015.4 - 0.0
22/04:00pm 30.3 28.2 11.3 31 11.1 E 13 20 7 11 1015.4 - 0.0
22/03:30pm 30.3 28.2 11.3 31 11.1 E 13 22 7 12 1015.6 - 0.0
22/03:00pm 30.1 28.0 11.1 31 11.0 SE 13 22 7 12 1015.8 1014.7 0.0
22/02:30pm 30.0 27.1 11.0 31 11.0 E 17 24 9 13 1015.9 - 0.0
22/02:00pm 29.5 26.6 11.1 32 10.7 SE 17 22 9 12 1016.6 - 0.0
22/01:30pm 28.5 26.1 10.2 32 10.4 SE 13 20 7 11 1017.0 - 0.0
22/01:00pm 28.7 25.6 10.4 32 10.4 ENE 17 24 9 13 1017.4 - 0.0
22/12:30pm 27.8 25.4 10.1 33 10.0 ESE 13 22 7 12 1017.7 - 0.0
22/12:00pm 27.0 23.3 9.4 33 9.8 ESE 19 28 10 15 1018.3 1017.3 0.0
22/11:30am 26.4 22.7 9.3 34 9.5 ESE 19 26 10 14 1018.7 - 0.0
22/11:00am 25.7 21.3 9.1 35 9.1 ESE 22 30 12 16 1018.9 - 0.0
22/10:30am 24.8 20.4 9.1 37 8.6 ESE 22 32 12 17 1019.4 - 0.0
22/10:00am 24.2 19.7 8.6 37 8.4 ESE 22 33 12 18 1019.5 - 0.0
22/09:30am 23.2 19.1 8.5 39 7.9 ESE 20 32 11 17 1019.3 - 0.0
22/09:00am 22.8 17.6 8.9 41 7.5 ESE 26 39 14 21 1018.9 1017.9 0.0
22/08:30am 22.2 18.1 8.7 42 7.2 ESE 20 33 11 18 1018.8 - 0.0
22/08:00am 21.5 17.6 8.7 44 6.8 ESE 19 28 10 15 1018.7 - 0.0
22/07:30am 21.1 17.9 8.4 44 6.7 ESE 15 24 8 13 1018.3 - 0.0
22/07:00am 21.0 17.4 8.3 44 6.7 ESE 17 26 9 14 1017.9 - 0.0
22/06:30am 21.3 17.7 8.2 43 6.9 ESE 17 26 9 14 1017.5 - 0.0
22/06:00am 21.6 17.6 8.1 42 7.1 ESE 19 32 10 17 1017.5 1016.5 0.0
22/05:30am 22.1 18.5 8.2 41 7.4 ESE 17 30 9 16 1017.4 - 0.0
22/05:00am 22.6 18.9 8.0 39 7.7 ESE 17 26 9 14 1017.4 - 0.0
22/04:30am 23.0 19.3 7.9 38 8.0 ESE 17 26 9 14 1017.3 - 0.0
22/04:00am 23.5 19.3 8.4 38 8.1 ESE 20 32 11 17 1017.1 - 0.0
22/03:30am 23.9 19.4 8.7 38 8.2 SE 22 32 12 17 1017.0 - 0.0
22/03:00am 24.1 20.4 9.3 39 8.1 ESE 19 26 10 14 1017.0 1016.0 0.0
22/02:30am 24.3 21.8 10.9 43 7.6 ESE 15 26 8 14 1017.1 - 0.0
22/02:00am 24.4 22.0 11.4 44 7.4 ESE 15 22 8 12 1017.3 - 0.0
22/01:30am 24.8 22.6 12.1 45 7.3 ESE 15 22 8 12 1017.5 - 0.0
22/01:00am 25.2 23.6 12.8 46 7.2 ESE 13 19 7 10 1017.1 - 0.0
22/12:30am 25.7 24.1 12.9 45 7.5 SE 13 20 7 11 1017.0 - 0.0
22/12:00am 26.7 24.4 13.1 43 8.0 SE 17 20 9 11 1016.9 1015.9 0.0
 
Date/Time
CST
Temp
°C
App
Temp
°C
Dew
Point
Rel
Hum
%
Delta-T
°C
Wind Press
QNH
hPa
Press
MSL
hPa
Rain
since 9 am
mm
Dir
 
Spd
km/h
Gust
km/h
Spd
kts
Gust
kts
21/11:30pm 27.0 25.3 13.7 44 7.9 SSE 15 22 8 12 1016.9 - 0.0
21/11:00pm 27.3 25.2 14.7 46 7.7 SE 19 24 10 13 1016.8 - 0.0
21/10:30pm 26.5 26.7 15.8 51 6.6 SE 9 15 5 8 1016.6 - 0.0
21/10:00pm 26.4 27.0 15.4 50 6.7 E 6 7 3 4 1016.3 - 0.0
21/09:30pm 27.1 27.6 15.1 47 7.3 E 6 7 3 4 1016.3 - 0.0
21/09:00pm 27.7 28.2 15.0 45 7.8 E 6 7 3 4 1016.2 1015.1 0.0
21/08:30pm 28.2 28.5 15.1 44 8.0 ENE 7 9 4 5 1015.9 - 0.0
21/08:00pm 28.8 29.3 15.0 43 8.5 ENE 6 7 3 4 1015.6 - 0.0
21/07:30pm 29.3 29.5 14.7 41 8.9 E 7 9 4 5 1015.3 - 0.0
21/07:00pm 29.9 29.8 14.0 37 9.7 E 7 9 4 5 1015.1 - 0.0
21/06:30pm 30.7 30.8 13.9 36 10.2 ENE 6 9 3 5 1014.9 - 0.0
21/06:00pm 31.8 31.4 14.0 34 10.9 E 9 13 5 7 1014.5 1013.4 0.0
21/05:30pm 32.8 31.0 13.4 30 11.8 ENE 15 20 8 11 1014.0 - 0.0
21/05:00pm 33.1 31.4 13.7 31 11.9 E 15 19 8 10 1013.8 - 0.0
21/04:30pm 33.7 32.4 13.7 30 12.3 E 13 19 7 10 1013.5 - 0.0
21/04:00pm 34.2 33.2 14.7 31 12.2 E 13 24 7 13 1013.5 - 0.0
21/03:30pm 34.8 32.9 14.1 28 12.8 ENE 17 22 9 12 1013.6 - 0.0
21/03:00pm 33.9 31.9 13.9 30 12.3 E 17 28 9 15 1013.9 1012.9 0.0
21/02:30pm 32.8 31.2 13.9 31 11.6 ENE 15 24 8 13 1014.2 - 0.0
21/02:00pm 33.8 31.4 13.8 30 12.3 ENE 19 54 10 29 1014.4 - 0.0
21/01:55pm 34.1 29.3 14.1 30 12.4 SE 32 54 17 29 1013.8 - 0.0
21/01:30pm 33.4 32.2 14.0 31 11.9 ESE 13 24 7 13 1014.9 - 0.0
21/01:00pm 32.8 31.6 13.9 31 11.6 ENE 13 20 7 11 1015.5 - 0.0
21/12:30pm 32.4 31.2 14.1 33 11.2 E 13 20 7 11 1016.1 - 0.0
21/12:00pm 32.5 31.7 14.1 32 11.3 NE 11 17 6 9 1016.4 1015.3 0.0
21/11:30am 31.5 30.8 14.2 35 10.6 NE 11 17 6 9 1016.8 - 0.0
21/11:00am 31.0 30.5 15.0 38 9.9 N 11 17 6 9 1017.2 - 0.0
21/10:30am 29.7 29.5 15.8 43 8.7 NNE 11 17 6 9 1017.6 - 0.0
21/10:00am 28.3 28.7 16.2 47 7.6 NNE 9 13 5 7 1017.7 - 0.0
21/09:30am 27.0 26.8 15.7 50 7.0 NNE 11 17 6 9 1017.6 - 0.0
21/09:00am 25.8 26.2 16.4 56 5.8 NE 9 15 5 8 1017.3 1016.3 0.0
21/08:30am 24.1 24.7 15.9 60 5.0 E 7 9 4 5 1017.1 - 0.0
21/08:00am 23.3 24.0 16.1 64 4.4 SE 7 9 4 5 1016.9 - 0.0
21/07:30am 22.0 23.9 15.8 68 3.8 CALM 0 0 0 0 1016.5 - 0.0
21/07:00am 21.3 22.0 15.6 70 3.4 S 6 9 3 5 1016.2 - 0.0
21/06:30am 22.0 23.5 15.8 68 3.8 ENE 2 9 1 5 1015.9 - 0.0
21/06:00am 21.6 22.3 15.7 69 3.6 ENE 6 9 3 5 1015.4 1014.3 0.0
21/05:30am 21.2 21.4 15.7 71 3.3 ENE 9 11 5 6 1015.2 - 0.0
21/05:00am 21.2 22.5 15.1 68 3.6 NE 2 13 1 7 1015.0 - 0.0
21/04:30am 22.0 23.8 15.4 66 4.0 CALM 0 0 0 0 1014.7 - 0.0
21/04:00am 22.2 24.1 15.8 67 3.9 CALM 0 0 0 0 1014.7 - 0.0
21/03:30am 21.8 23.6 15.4 67 3.8 CALM 0 0 0 0 1014.7 - 0.0
21/03:00am 22.1 23.9 15.5 66 4.0 CALM 0 0 0 0 1014.9 1013.8 0.0
21/02:30am 22.9 24.6 15.2 62 4.6 CALM 0 0 0 0 1015.1 - 0.0
21/02:00am 24.0 25.2 15.0 57 5.4 NE 2 6 1 3 1015.4 - 0.0
21/01:30am 24.7 25.2 15.1 55 5.8 NE 6 7 3 4 1015.6 - 0.0
21/01:00am 25.2 25.7 14.9 52 6.2 NNE 6 7 3 4 1015.7 - 0.0
21/12:30am 25.4 25.7 15.1 53 6.3 NNE 7 9 4 5 1015.9 - 0.0
21/12:00am 25.0 25.4 15.3 55 5.9 NNE 7 9 4 5 1016.0 1014.9 0.0
 
Date/Time
CST
Temp
°C
App
Temp
°C
Dew
Point
Rel
Hum
%
Delta-T
°C
Wind Press
QNH
hPa
Press
MSL
hPa
Rain
since 9 am
mm
Dir
 
Spd
km/h
Gust
km/h
Spd
kts
Gust
kts
20/11:30pm 24.4 24.9 15.1 56 5.6 NNE 6 7 3 4 1016.2 - 0.0
20/11:00pm 24.2 24.7 15.1 56 5.5 NE 6 7 3 4 1016.2 - 0.0
20/10:30pm 24.4 24.8 15.3 57 5.5 NE 7 7 4 4 1016.1 - 0.0
20/10:00pm 24.6 25.0 15.2 55 5.7 NE 7 7 4 4 1016.1 - 0.0
20/09:30pm 24.9 25.3 14.7 53 6.1 E 6 7 3 4 1016.1 - 0.0
20/09:00pm 25.6 26.1 15.0 52 6.4 E 6 7 3 4 1015.8 1014.7 0.0
20/08:30pm 26.0 26.5 15.1 51 6.6 ENE 6 7 3 4 1015.5 - 0.0
20/08:00pm 26.6 27.5 15.0 49 7.1 E 4 6 2 3 1015.2 - 0.0
20/07:30pm 27.3 27.8 15.0 47 7.5 E 6 6 3 3 1014.7 - 0.0
20/07:00pm 28.4 28.9 15.0 44 8.2 E 6 7 3 4 1014.2 - 0.0
20/06:30pm 29.7 30.1 14.7 40 9.2 ESE 6 7 3 4 1013.9 - 0.0
20/06:00pm 31.1 31.1 14.3 36 10.3 E 7 11 4 6 1013.7 1012.7 0.0
20/05:30pm 32.0 31.6 14.2 34 10.9 ESE 9 15 5 8 1013.4 - 0.0
20/05:00pm 32.1 31.6 13.8 33 11.2 E 9 13 5 7 1013.1 - 0.0

Other Formats:

Comma delimited format used in spreadsheet applications
http://www.bom.gov.au/fwo/IDD60801/IDD60801.94225.axf

JavaScript Object Notation format (JSON) in row-major order
http://www.bom.gov.au/fwo/IDD60801/IDD60801.94225.json